sensor_id;sensor_type;location;lat;lon;timestamp;P1;durP1;ratioP1;P2;durP2;ratioP2
54406;SDS011;40313;50.308;30.374;2022-07-03T00:01:32;2.58;;;2.17;;
54406;SDS011;40313;50.308;30.374;2022-07-03T00:03:59;11.35;;;2.75;;
54406;SDS011;40313;50.308;30.374;2022-07-03T00:06:26;17.13;;;5.00;;
54406;SDS011;40313;50.308;30.374;2022-07-03T00:08:54;10.73;;;6.78;;
54406;SDS011;40313;50.308;30.374;2022-07-03T00:11:21;16.25;;;4.82;;
54406;SDS011;40313;50.308;30.374;2022-07-03T00:13:48;14.18;;;5.25;;
54406;SDS011;40313;50.308;30.374;2022-07-03T00:16:15;11.95;;;4.60;;
54406;SDS011;40313;50.308;30.374;2022-07-03T00:18:43;11.65;;;4.40;;
54406;SDS011;40313;50.308;30.374;2022-07-03T00:21:11;14.00;;;3.33;;
54406;SDS011;40313;50.308;30.374;2022-07-03T00:23:43;6.65;;;1.98;;
54406;SDS011;40313;50.308;30.374;2022-07-03T00:26:13;2.33;;;2.10;;
54406;SDS011;40313;50.308;30.374;2022-07-03T00:28:44;3.25;;;2.20;;
54406;SDS011;40313;50.308;30.374;2022-07-03T00:31:11;3.70;;;1.98;;
54406;SDS011;40313;50.308;30.374;2022-07-03T00:33:39;4.28;;;1.98;;
54406;SDS011;40313;50.308;30.374;2022-07-03T00:36:07;12.25;;;3.88;;
54406;SDS011;40313;50.308;30.374;2022-07-03T00:38:35;2.17;;;1.75;;
54406;SDS011;40313;50.308;30.374;2022-07-03T00:41:02;1.98;;;1.77;;
54406;SDS011;40313;50.308;30.374;2022-07-03T00:43:30;4.40;;;2.30;;
54406;SDS011;40313;50.308;30.374;2022-07-03T00:46:06;11.75;;;2.65;;
54406;SDS011;40313;50.308;30.374;2022-07-03T00:48:36;2.70;;;2.30;;
54406;SDS011;40313;50.308;30.374;2022-07-03T00:51:04;5.75;;;2.20;;
54406;SDS011;40313;50.308;30.374;2022-07-03T00:53:33;16.42;;;2.65;;
54406;SDS011;40313;50.308;30.374;2022-07-03T00:56:03;3.00;;;2.53;;
54406;SDS011;40313;50.308;30.374;2022-07-03T00:58:32;4.63;;;2.15;;
54406;SDS011;40313;50.308;30.374;2022-07-03T01:01:00;8.07;;;2.53;;
54406;SDS011;40313;50.308;30.374;2022-07-03T01:03:27;6.70;;;2.47;;
54406;SDS011;40313;50.308;30.374;2022-07-03T01:05:54;3.90;;;2.50;;
54406;SDS011;40313;50.308;30.374;2022-07-03T01:08:25;3.60;;;3.30;;
54406;SDS011;40313;50.308;30.374;2022-07-03T01:10:59;4.95;;;3.10;;
54406;SDS011;40313;50.308;30.374;2022-07-03T01:13:38;4.43;;;3.30;;
54406;SDS011;40313;50.308;30.374;2022-07-03T01:16:15;3.42;;;3.13;;
54406;SDS011;40313;50.308;30.374;2022-07-03T01:18:48;2.80;;;2.60;;
54406;SDS011;40313;50.308;30.374;2022-07-03T01:21:19;3.70;;;2.00;;
54406;SDS011;40313;50.308;30.374;2022-07-03T01:24:03;2.72;;;2.45;;
54406;SDS011;40313;50.308;30.374;2022-07-03T01:26:54;6.45;;;3.15;;
54406;SDS011;40313;50.308;30.374;2022-07-03T01:29:25;8.75;;;1.92;;
54406;SDS011;40313;50.308;30.374;2022-07-03T01:31:57;9.50;;;2.67;;
54406;SDS011;40313;50.308;30.374;2022-07-03T01:34:26;10.02;;;2.90;;
54406;SDS011;40313;50.308;30.374;2022-07-03T01:39:28;13.60;;;2.40;;
54406;SDS011;40313;50.308;30.374;2022-07-03T01:41:59;3.08;;;2.60;;
54406;SDS011;40313;50.308;30.374;2022-07-03T01:44:26;4.95;;;1.88;;
54406;SDS011;40313;50.308;30.374;2022-07-03T01:46:55;10.63;;;2.22;;
54406;SDS011;40313;50.308;30.374;2022-07-03T01:49:24;3.33;;;1.83;;
54406;SDS011;40313;50.308;30.374;2022-07-03T01:51:53;3.20;;;2.17;;
54406;SDS011;40313;50.308;30.374;2022-07-03T01:54:24;7.63;;;3.13;;
54406;SDS011;40313;50.308;30.374;2022-07-03T01:56:52;10.02;;;2.53;;
54406;SDS011;40313;50.308;30.374;2022-07-03T01:59:20;2.58;;;2.38;;
54406;SDS011;40313;50.308;30.374;2022-07-03T02:01:48;5.95;;;3.17;;
54406;SDS011;40313;50.308;30.374;2022-07-03T02:04:20;3.20;;;2.90;;
54406;SDS011;40313;50.308;30.374;2022-07-03T02:06:55;3.97;;;3.58;;
54406;SDS011;40313;50.308;30.374;2022-07-03T02:09:32;5.13;;;2.97;;
54406;SDS011;40313;50.308;30.374;2022-07-03T02:12:07;7.85;;;3.28;;
54406;SDS011;40313;50.308;30.374;2022-07-03T02:14:40;13.70;;;3.15;;
54406;SDS011;40313;50.308;30.374;2022-07-03T02:17:16;9.15;;;2.30;;
54406;SDS011;40313;50.308;30.374;2022-07-03T02:19:48;3.83;;;1.65;;
54406;SDS011;40313;50.308;30.374;2022-07-03T02:22:31;2.03;;;1.83;;
54406;SDS011;40313;50.308;30.374;2022-07-03T02:25:01;5.05;;;1.38;;
54406;SDS011;40313;50.308;30.374;2022-07-03T02:27:32;15.73;;;2.17;;
54406;SDS011;40313;50.308;30.374;2022-07-03T02:32:34;4.85;;;1.52;;
54406;SDS011;40313;50.308;30.374;2022-07-03T02:35:05;6.50;;;1.38;;
54406;SDS011;40313;50.308;30.374;2022-07-03T02:37:35;1.45;;;1.35;;
54406;SDS011;40313;50.308;30.374;2022-07-03T02:40:08;1.70;;;1.60;;
54406;SDS011;40313;50.308;30.374;2022-07-03T02:42:45;2.60;;;1.70;;
54406;SDS011;40313;50.308;30.374;2022-07-03T02:45:21;3.83;;;2.20;;
54406;SDS011;40313;50.308;30.374;2022-07-03T02:47:54;2.05;;;1.30;;
54406;SDS011;40313;50.308;30.374;2022-07-03T02:50:27;3.33;;;1.13;;
54406;SDS011;40313;50.308;30.374;2022-07-03T02:52:58;9.90;;;1.90;;
54406;SDS011;40313;50.308;30.374;2022-07-03T02:55:34;9.48;;;1.50;;
54406;SDS011;40313;50.308;30.374;2022-07-03T02:58:27;2.00;;;1.40;;
54406;SDS011;40313;50.308;30.374;2022-07-03T03:01:16;2.58;;;1.08;;
54406;SDS011;40313;50.308;30.374;2022-07-03T03:03:50;5.30;;;1.20;;
54406;SDS011;40313;50.308;30.374;2022-07-03T03:06:33;6.47;;;1.05;;
54406;SDS011;40313;50.308;30.374;2022-07-03T03:09:03;1.55;;;1.30;;
54406;SDS011;40313;50.308;30.374;2022-07-03T03:11:32;2.00;;;1.10;;
54406;SDS011;40313;50.308;30.374;2022-07-03T03:14:02;11.65;;;1.55;;
54406;SDS011;40313;50.308;30.374;2022-07-03T03:16:35;4.13;;;1.00;;
54406;SDS011;40313;50.308;30.374;2022-07-03T03:19:07;5.88;;;1.35;;
54406;SDS011;40313;50.308;30.374;2022-07-03T03:21:37;6.00;;;1.08;;
54406;SDS011;40313;50.308;30.374;2022-07-03T03:24:11;12.27;;;1.02;;
54406;SDS011;40313;50.308;30.374;2022-07-03T03:26:39;4.43;;;1.15;;
54406;SDS011;40313;50.308;30.374;2022-07-03T03:29:06;3.00;;;1.40;;
54406;SDS011;40313;50.308;30.374;2022-07-03T03:31:33;3.25;;;0.80;;
54406;SDS011;40313;50.308;30.374;2022-07-03T03:34:01;2.00;;;1.48;;
54406;SDS011;40313;50.308;30.374;2022-07-03T03:36:29;7.15;;;2.33;;
54406;SDS011;40313;50.308;30.374;2022-07-03T03:38:55;3.40;;;3.15;;
54406;SDS011;40313;50.308;30.374;2022-07-03T03:41:23;4.75;;;2.60;;
54406;SDS011;40313;50.308;30.374;2022-07-03T03:43:50;2.45;;;2.33;;
54406;SDS011;40313;50.308;30.374;2022-07-03T03:46:16;2.42;;;2.05;;
54406;SDS011;40313;50.308;30.374;2022-07-03T03:48:43;10.20;;;1.85;;
54406;SDS011;40313;50.308;30.374;2022-07-03T03:51:12;3.85;;;1.40;;
54406;SDS011;40313;50.308;30.374;2022-07-03T03:53:38;7.75;;;1.40;;
54406;SDS011;40313;50.308;30.374;2022-07-03T03:56:06;2.40;;;1.40;;
54406;SDS011;40313;50.308;30.374;2022-07-03T03:58:34;8.43;;;1.40;;
54406;SDS011;40313;50.308;30.374;2022-07-03T04:01:04;1.45;;;1.33;;
54406;SDS011;40313;50.308;30.374;2022-07-03T04:03:32;1.33;;;1.17;;
54406;SDS011;40313;50.308;30.374;2022-07-03T04:06:00;6.13;;;0.82;;
54406;SDS011;40313;50.308;30.374;2022-07-03T04:08:29;2.67;;;0.93;;
54406;SDS011;40313;50.308;30.374;2022-07-03T04:10:56;8.05;;;1.25;;
54406;SDS011;40313;50.308;30.374;2022-07-03T04:13:24;6.35;;;1.35;;
54406;SDS011;40313;50.308;30.374;2022-07-03T04:15:51;12.68;;;2.20;;
54406;SDS011;40313;50.308;30.374;2022-07-03T04:18:19;1.27;;;0.90;;
54406;SDS011;40313;50.308;30.374;2022-07-03T04:20:46;9.85;;;1.63;;
54406;SDS011;40313;50.308;30.374;2022-07-03T04:23:12;6.00;;;1.02;;
54406;SDS011;40313;50.308;30.374;2022-07-03T04:25:41;1.20;;;0.90;;
54406;SDS011;40313;50.308;30.374;2022-07-03T04:28:08;5.68;;;1.33;;
54406;SDS011;40313;50.308;30.374;2022-07-03T04:30:34;8.85;;;1.00;;
54406;SDS011;40313;50.308;30.374;2022-07-03T04:33:01;3.95;;;1.38;;
54406;SDS011;40313;50.308;30.374;2022-07-03T04:35:28;10.32;;;1.00;;
54406;SDS011;40313;50.308;30.374;2022-07-03T04:37:54;7.75;;;0.82;;
54406;SDS011;40313;50.308;30.374;2022-07-03T04:40:21;8.25;;;0.80;;
54406;SDS011;40313;50.308;30.374;2022-07-03T04:42:49;4.72;;;0.77;;
54406;SDS011;40313;50.308;30.374;2022-07-03T04:45:16;3.35;;;1.10;;
54406;SDS011;40313;50.308;30.374;2022-07-03T04:47:42;4.15;;;0.95;;
54406;SDS011;40313;50.308;30.374;2022-07-03T04:50:09;1.40;;;0.82;;
54406;SDS011;40313;50.308;30.374;2022-07-03T04:52:36;2.70;;;1.00;;
54406;SDS011;40313;50.308;30.374;2022-07-03T04:55:03;6.07;;;1.30;;
54406;SDS011;40313;50.308;30.374;2022-07-03T04:57:30;2.85;;;0.95;;
54406;SDS011;40313;50.308;30.374;2022-07-03T04:59:58;2.22;;;1.15;;
54406;SDS011;40313;50.308;30.374;2022-07-03T05:02:24;2.80;;;1.48;;
54406;SDS011;40313;50.308;30.374;2022-07-03T05:04:51;4.60;;;0.90;;
54406;SDS011;40313;50.308;30.374;2022-07-03T05:07:18;6.35;;;0.70;;
54406;SDS011;40313;50.308;30.374;2022-07-03T05:09:44;3.35;;;0.80;;
54406;SDS011;40313;50.308;30.374;2022-07-03T05:12:11;1.52;;;1.08;;
54406;SDS011;40313;50.308;30.374;2022-07-03T05:14:37;5.05;;;1.02;;
54406;SDS011;40313;50.308;30.374;2022-07-03T05:17:06;6.70;;;0.80;;
54406;SDS011;40313;50.308;30.374;2022-07-03T05:19:32;1.02;;;0.70;;
54406;SDS011;40313;50.308;30.374;2022-07-03T05:21:59;3.10;;;1.15;;
54406;SDS011;40313;50.308;30.374;2022-07-03T05:24:26;3.17;;;0.75;;
54406;SDS011;40313;50.308;30.374;2022-07-03T05:26:52;1.40;;;0.73;;
54406;SDS011;40313;50.308;30.374;2022-07-03T05:29:19;2.38;;;0.68;;
54406;SDS011;40313;50.308;30.374;2022-07-03T05:31:46;7.43;;;0.88;;
54406;SDS011;40313;50.308;30.374;2022-07-03T05:34:14;1.48;;;0.70;;
54406;SDS011;40313;50.308;30.374;2022-07-03T05:36:40;1.23;;;0.70;;
54406;SDS011;40313;50.308;30.374;2022-07-03T05:39:07;8.07;;;0.70;;
54406;SDS011;40313;50.308;30.374;2022-07-03T05:41:51;1.00;;;0.60;;
54406;SDS011;40313;50.308;30.374;2022-07-03T05:44:18;4.45;;;0.85;;
54406;SDS011;40313;50.308;30.374;2022-07-03T05:46:44;3.38;;;1.10;;
54406;SDS011;40313;50.308;30.374;2022-07-03T05:49:11;1.60;;;0.75;;
54406;SDS011;40313;50.308;30.374;2022-07-03T05:51:39;7.63;;;0.50;;
54406;SDS011;40313;50.308;30.374;2022-07-03T05:54:06;10.02;;;0.70;;
54406;SDS011;40313;50.308;30.374;2022-07-03T05:56:33;2.15;;;0.70;;
54406;SDS011;40313;50.308;30.374;2022-07-03T05:59:00;2.88;;;0.80;;
54406;SDS011;40313;50.308;30.374;2022-07-03T06:01:26;6.88;;;1.42;;
54406;SDS011;40313;50.308;30.374;2022-07-03T06:03:53;5.10;;;1.00;;
54406;SDS011;40313;50.308;30.374;2022-07-03T06:06:20;2.47;;;1.33;;
54406;SDS011;40313;50.308;30.374;2022-07-03T06:08:48;4.18;;;1.02;;
54406;SDS011;40313;50.308;30.374;2022-07-03T06:11:14;2.15;;;1.10;;
54406;SDS011;40313;50.308;30.374;2022-07-03T06:13:41;3.22;;;1.13;;
54406;SDS011;40313;50.308;30.374;2022-07-03T06:16:08;5.63;;;1.30;;
54406;SDS011;40313;50.308;30.374;2022-07-03T06:18:34;1.50;;;1.10;;
54406;SDS011;40313;50.308;30.374;2022-07-03T06:21:01;10.60;;;1.00;;
54406;SDS011;40313;50.308;30.374;2022-07-03T06:23:28;1.38;;;0.80;;
54406;SDS011;40313;50.308;30.374;2022-07-03T06:55:15;0.70;;;0.60;;
54406;SDS011;40313;50.308;30.374;2022-07-03T06:57:42;5.60;;;0.90;;
54406;SDS011;40313;50.308;30.374;2022-07-03T07:00:11;3.90;;;0.75;;
54406;SDS011;40313;50.308;30.374;2022-07-03T07:02:39;5.07;;;1.08;;
54406;SDS011;40313;50.308;30.374;2022-07-03T07:05:06;3.78;;;0.80;;
54406;SDS011;40313;50.308;30.374;2022-07-03T07:07:33;7.82;;;1.10;;
54406;SDS011;40313;50.308;30.374;2022-07-03T07:09:59;4.68;;;0.88;;
54406;SDS011;40313;50.308;30.374;2022-07-03T07:12:26;4.78;;;0.98;;
54406;SDS011;40313;50.308;30.374;2022-07-03T07:14:53;1.70;;;0.65;;
54406;SDS011;40313;50.308;30.374;2022-07-03T07:17:21;3.95;;;0.80;;
54406;SDS011;40313;50.308;30.374;2022-07-03T07:19:47;4.75;;;1.05;;
54406;SDS011;40313;50.308;30.374;2022-07-03T07:22:14;4.97;;;0.88;;
54406;SDS011;40313;50.308;30.374;2022-07-03T07:24:41;1.33;;;0.88;;
54406;SDS011;40313;50.308;30.374;2022-07-03T07:27:08;1.08;;;0.98;;
54406;SDS011;40313;50.308;30.374;2022-07-03T07:29:34;6.13;;;0.98;;
54406;SDS011;40313;50.308;30.374;2022-07-03T07:32:01;5.53;;;1.17;;
54406;SDS011;40313;50.308;30.374;2022-07-03T07:34:29;3.15;;;0.80;;
54406;SDS011;40313;50.308;30.374;2022-07-03T07:36:56;3.10;;;0.98;;
54406;SDS011;40313;50.308;30.374;2022-07-03T07:39:22;8.52;;;1.40;;
54406;SDS011;40313;50.308;30.374;2022-07-03T07:41:49;6.80;;;1.15;;
54406;SDS011;40313;50.308;30.374;2022-07-03T07:44:16;1.17;;;1.05;;
54406;SDS011;40313;50.308;30.374;2022-07-03T07:46:43;2.40;;;1.20;;
54406;SDS011;40313;50.308;30.374;2022-07-03T07:49:09;2.60;;;1.67;;
54406;SDS011;40313;50.308;30.374;2022-07-03T07:51:37;4.63;;;1.98;;
54406;SDS011;40313;50.308;30.374;2022-07-03T07:54:04;6.03;;;1.88;;
54406;SDS011;40313;50.308;30.374;2022-07-03T07:56:31;5.13;;;1.30;;
54406;SDS011;40313;50.308;30.374;2022-07-03T07:58:57;2.90;;;1.52;;
54406;SDS011;40313;50.308;30.374;2022-07-03T08:01:25;2.03;;;1.60;;
54406;SDS011;40313;50.308;30.374;2022-07-03T08:04:09;11.02;;;1.80;;
54406;SDS011;40313;50.308;30.374;2022-07-03T08:06:55;3.72;;;2.00;;
54406;SDS011;40313;50.308;30.374;2022-07-03T08:09:21;4.35;;;2.05;;
54406;SDS011;40313;50.308;30.374;2022-07-03T08:11:48;8.98;;;1.75;;
54406;SDS011;40313;50.308;30.374;2022-07-03T08:14:15;8.27;;;2.10;;
54406;SDS011;40313;50.308;30.374;2022-07-03T08:16:41;10.63;;;2.00;;
54406;SDS011;40313;50.308;30.374;2022-07-03T08:19:10;4.75;;;1.75;;
54406;SDS011;40313;50.308;30.374;2022-07-03T08:21:36;15.38;;;2.00;;
54406;SDS011;40313;50.308;30.374;2022-07-03T08:24:05;7.25;;;2.60;;
54406;SDS011;40313;50.308;30.374;2022-07-03T08:26:31;9.77;;;2.55;;
54406;SDS011;40313;50.308;30.374;2022-07-03T08:28:58;3.33;;;1.70;;
54406;SDS011;40313;50.308;30.374;2022-07-03T08:31:25;13.35;;;1.92;;
54406;SDS011;40313;50.308;30.374;2022-07-03T08:33:51;8.38;;;1.88;;
54406;SDS011;40313;50.308;30.374;2022-07-03T08:36:18;9.95;;;2.15;;
54406;SDS011;40313;50.308;30.374;2022-07-03T08:38:45;18.63;;;2.00;;
54406;SDS011;40313;50.308;30.374;2022-07-03T08:41:13;9.43;;;2.50;;
54406;SDS011;40313;50.308;30.374;2022-07-03T08:43:42;8.32;;;2.20;;
54406;SDS011;40313;50.308;30.374;2022-07-03T08:46:10;5.32;;;2.17;;
54406;SDS011;40313;50.308;30.374;2022-07-03T08:48:37;7.28;;;1.85;;
54406;SDS011;40313;50.308;30.374;2022-07-03T08:51:04;16.95;;;2.25;;
54406;SDS011;40313;50.308;30.374;2022-07-03T08:53:31;5.75;;;1.70;;
54406;SDS011;40313;50.308;30.374;2022-07-03T08:55:57;3.42;;;1.80;;
54406;SDS011;40313;50.308;30.374;2022-07-03T08:58:28;4.55;;;2.00;;
54406;SDS011;40313;50.308;30.374;2022-07-03T09:00:57;5.93;;;1.73;;
54406;SDS011;40313;50.308;30.374;2022-07-03T09:03:24;5.10;;;2.22;;
54406;SDS011;40313;50.308;30.374;2022-07-03T09:05:51;5.43;;;2.00;;
54406;SDS011;40313;50.308;30.374;2022-07-03T09:08:18;8.30;;;1.80;;
54406;SDS011;40313;50.308;30.374;2022-07-03T09:10:45;7.72;;;2.28;;
54406;SDS011;40313;50.308;30.374;2022-07-03T09:13:12;10.48;;;1.67;;
54406;SDS011;40313;50.308;30.374;2022-07-03T09:15:40;5.32;;;2.83;;
54406;SDS011;40313;50.308;30.374;2022-07-03T09:18:07;3.60;;;2.88;;
54406;SDS011;40313;50.308;30.374;2022-07-03T09:20:34;2.95;;;2.15;;
54406;SDS011;40313;50.308;30.374;2022-07-03T09:23:08;6.78;;;2.08;;
54406;SDS011;40313;50.308;30.374;2022-07-03T09:25:49;6.93;;;2.42;;
54406;SDS011;40313;50.308;30.374;2022-07-03T09:28:20;6.95;;;1.80;;
54406;SDS011;40313;50.308;30.374;2022-07-03T09:30:58;6.88;;;2.60;;
54406;SDS011;40313;50.308;30.374;2022-07-03T09:33:26;2.33;;;1.60;;
54406;SDS011;40313;50.308;30.374;2022-07-03T09:35:54;1.88;;;1.25;;
54406;SDS011;40313;50.308;30.374;2022-07-03T09:38:22;3.65;;;1.67;;
54406;SDS011;40313;50.308;30.374;2022-07-03T09:40:50;5.28;;;2.05;;
54406;SDS011;40313;50.308;30.374;2022-07-03T09:43:22;2.28;;;2.08;;
54406;SDS011;40313;50.308;30.374;2022-07-03T09:45:51;3.28;;;1.60;;
54406;SDS011;40313;50.308;30.374;2022-07-03T09:48:30;2.05;;;1.50;;
54406;SDS011;40313;50.308;30.374;2022-07-03T09:51:10;2.83;;;1.75;;
54406;SDS011;40313;50.308;30.374;2022-07-03T09:53:45;2.83;;;1.48;;
54406;SDS011;40313;50.308;30.374;2022-07-03T09:56:16;6.25;;;1.75;;
54406;SDS011;40313;50.308;30.374;2022-07-03T09:59:00;3.55;;;1.88;;
54406;SDS011;40313;50.308;30.374;2022-07-03T10:01:36;5.75;;;1.63;;
54406;SDS011;40313;50.308;30.374;2022-07-03T10:04:15;5.72;;;4.40;;
54406;SDS011;40313;50.308;30.374;2022-07-03T10:06:47;2.83;;;2.63;;
54406;SDS011;40313;50.308;30.374;2022-07-03T10:09:15;12.85;;;7.82;;
54406;SDS011;40313;50.308;30.374;2022-07-03T10:11:43;6.15;;;4.60;;
54406;SDS011;40313;50.308;30.374;2022-07-03T10:14:10;3.15;;;2.95;;
54406;SDS011;40313;50.308;30.374;2022-07-03T10:16:40;5.43;;;3.67;;
54406;SDS011;40313;50.308;30.374;2022-07-03T10:19:06;4.35;;;3.63;;
54406;SDS011;40313;50.308;30.374;2022-07-03T10:21:40;4.60;;;4.05;;
54406;SDS011;40313;50.308;30.374;2022-07-03T10:24:08;2.95;;;2.15;;
54406;SDS011;40313;50.308;30.374;2022-07-03T10:26:36;6.30;;;1.65;;
54406;SDS011;40313;50.308;30.374;2022-07-03T10:29:03;1.92;;;1.52;;
54406;SDS011;40313;50.308;30.374;2022-07-03T10:31:32;2.03;;;1.70;;
54406;SDS011;40313;50.308;30.374;2022-07-03T10:33:58;6.32;;;1.77;;
54406;SDS011;40313;50.308;30.374;2022-07-03T10:36:26;2.75;;;1.90;;
54406;SDS011;40313;50.308;30.374;2022-07-03T10:38:56;3.25;;;1.92;;
54406;SDS011;40313;50.308;30.374;2022-07-03T10:44:17;1.83;;;1.67;;
54406;SDS011;40313;50.308;30.374;2022-07-03T10:47:01;4.55;;;1.92;;
54406;SDS011;40313;50.308;30.374;2022-07-03T10:49:28;2.50;;;2.30;;
54406;SDS011;40313;50.308;30.374;2022-07-03T10:51:55;13.65;;;2.60;;
54406;SDS011;40313;50.308;30.374;2022-07-03T10:54:25;5.25;;;2.42;;
54406;SDS011;40313;50.308;30.374;2022-07-03T10:57:09;15.98;;;2.45;;
54406;SDS011;40313;50.308;30.374;2022-07-03T11:02:40;5.43;;;3.50;;
54406;SDS011;40313;50.308;30.374;2022-07-03T11:05:23;5.32;;;2.80;;
54406;SDS011;40313;50.308;30.374;2022-07-03T11:08:10;3.38;;;2.63;;
54406;SDS011;40313;50.308;30.374;2022-07-03T11:10:42;4.55;;;3.58;;
54406;SDS011;40313;50.308;30.374;2022-07-03T11:13:18;11.63;;;3.75;;
54406;SDS011;40313;50.308;30.374;2022-07-03T11:15:48;11.07;;;3.40;;
54406;SDS011;40313;50.308;30.374;2022-07-03T11:18:27;4.47;;;4.00;;
54406;SDS011;40313;50.308;30.374;2022-07-03T11:27:21;16.50;;;4.10;;
54406;SDS011;40313;50.308;30.374;2022-07-03T11:29:57;4.55;;;4.15;;
54406;SDS011;40313;50.308;30.374;2022-07-03T11:38:16;12.05;;;3.70;;
54406;SDS011;40313;50.308;30.374;2022-07-03T11:40:46;3.47;;;3.17;;
54406;SDS011;40313;50.308;30.374;2022-07-03T11:43:16;9.60;;;4.15;;
54406;SDS011;40313;50.308;30.374;2022-07-03T11:45:43;8.15;;;5.03;;
54406;SDS011;40313;50.308;30.374;2022-07-03T11:48:12;6.18;;;4.80;;
54406;SDS011;40313;50.308;30.374;2022-07-03T11:50:40;5.60;;;2.92;;
54406;SDS011;40313;50.308;30.374;2022-07-03T11:53:21;5.70;;;3.10;;
54406;SDS011;40313;50.308;30.374;2022-07-03T11:55:50;5.18;;;2.70;;
54406;SDS011;40313;50.308;30.374;2022-07-03T11:58:20;8.85;;;2.40;;
54406;SDS011;40313;50.308;30.374;2022-07-03T12:00:47;7.95;;;2.72;;
54406;SDS011;40313;50.308;30.374;2022-07-03T12:03:15;8.27;;;2.88;;
54406;SDS011;40313;50.308;30.374;2022-07-03T12:05:50;8.85;;;2.55;;
54406;SDS011;40313;50.308;30.374;2022-07-03T12:08:22;11.82;;;3.00;;
54406;SDS011;40313;50.308;30.374;2022-07-03T12:10:49;7.63;;;3.55;;
54406;SDS011;40313;50.308;30.374;2022-07-03T12:13:23;3.60;;;2.55;;
54406;SDS011;40313;50.308;30.374;2022-07-03T12:15:50;7.72;;;2.70;;
54406;SDS011;40313;50.308;30.374;2022-07-03T12:18:18;3.22;;;2.92;;
54406;SDS011;40313;50.308;30.374;2022-07-03T12:20:44;13.73;;;2.95;;
54406;SDS011;40313;50.308;30.374;2022-07-03T12:23:11;11.65;;;3.15;;
54406;SDS011;40313;50.308;30.374;2022-07-03T12:25:39;10.90;;;3.10;;
54406;SDS011;40313;50.308;30.374;2022-07-03T12:28:06;8.65;;;3.53;;
54406;SDS011;40313;50.308;30.374;2022-07-03T12:30:36;3.75;;;2.75;;
54406;SDS011;40313;50.308;30.374;2022-07-03T12:33:03;2.47;;;2.28;;
54406;SDS011;40313;50.308;30.374;2022-07-03T12:35:32;10.48;;;3.13;;
54406;SDS011;40313;50.308;30.374;2022-07-03T12:37:58;3.03;;;2.78;;
54406;SDS011;40313;50.308;30.374;2022-07-03T12:40:25;3.15;;;2.70;;
54406;SDS011;40313;50.308;30.374;2022-07-03T12:42:52;5.85;;;2.53;;
54406;SDS011;40313;50.308;30.374;2022-07-03T12:45:20;5.60;;;2.28;;
54406;SDS011;40313;50.308;30.374;2022-07-03T12:47:57;6.15;;;2.70;;
54406;SDS011;40313;50.308;30.374;2022-07-03T12:50:25;8.52;;;2.95;;
54406;SDS011;40313;50.308;30.374;2022-07-03T12:52:53;2.60;;;2.42;;
54406;SDS011;40313;50.308;30.374;2022-07-03T12:55:22;9.52;;;2.42;;
54406;SDS011;40313;50.308;30.374;2022-07-03T12:57:50;7.93;;;2.85;;
54406;SDS011;40313;50.308;30.374;2022-07-03T13:00:50;3.58;;;2.15;;
54406;SDS011;40313;50.308;30.374;2022-07-03T13:03:27;8.48;;;2.10;;
54406;SDS011;40313;50.308;30.374;2022-07-03T13:05:55;9.10;;;2.85;;
54406;SDS011;40313;50.308;30.374;2022-07-03T13:08:22;8.85;;;2.15;;
54406;SDS011;40313;50.308;30.374;2022-07-03T13:10:55;2.47;;;2.28;;
54406;SDS011;40313;50.308;30.374;2022-07-03T13:13:22;3.22;;;2.75;;
54406;SDS011;40313;50.308;30.374;2022-07-03T13:15:49;6.63;;;2.33;;
54406;SDS011;40313;50.308;30.374;2022-07-03T13:18:16;9.57;;;2.50;;
54406;SDS011;40313;50.308;30.374;2022-07-03T13:20:44;3.33;;;3.13;;
54406;SDS011;40313;50.308;30.374;2022-07-03T13:23:10;7.53;;;2.72;;
54406;SDS011;40313;50.308;30.374;2022-07-03T13:25:37;2.58;;;2.38;;
54406;SDS011;40313;50.308;30.374;2022-07-03T13:28:08;7.65;;;2.75;;
54406;SDS011;40313;50.308;30.374;2022-07-03T13:30:36;4.80;;;2.33;;
54406;SDS011;40313;50.308;30.374;2022-07-03T13:33:04;4.68;;;2.60;;
54406;SDS011;40313;50.308;30.374;2022-07-03T13:35:31;9.68;;;5.05;;
54406;SDS011;40313;50.308;30.374;2022-07-03T13:38:00;4.32;;;3.92;;
54406;SDS011;40313;50.308;30.374;2022-07-03T13:40:27;11.70;;;5.13;;
54406;SDS011;40313;50.308;30.374;2022-07-03T13:42:54;11.85;;;5.90;;
54406;SDS011;40313;50.308;30.374;2022-07-03T13:45:21;10.45;;;6.65;;
54406;SDS011;40313;50.308;30.374;2022-07-03T13:47:48;13.80;;;6.63;;
54406;SDS011;40313;50.308;30.374;2022-07-03T13:50:14;9.40;;;7.85;;
54406;SDS011;40313;50.308;30.374;2022-07-03T13:52:41;17.05;;;6.65;;
54406;SDS011;40313;50.308;30.374;2022-07-03T13:55:09;12.98;;;6.65;;
54406;SDS011;40313;50.308;30.374;2022-07-03T13:57:37;12.82;;;6.28;;
54406;SDS011;40313;50.308;30.374;2022-07-03T14:00:05;7.85;;;6.22;;
54406;SDS011;40313;50.308;30.374;2022-07-03T14:02:32;11.40;;;5.38;;
54406;SDS011;40313;50.308;30.374;2022-07-03T14:04:59;18.67;;;7.63;;
54406;SDS011;40313;50.308;30.374;2022-07-03T14:07:26;11.40;;;5.82;;
54406;SDS011;40313;50.308;30.374;2022-07-03T14:09:52;9.30;;;5.25;;
54406;SDS011;40313;50.308;30.374;2022-07-03T14:12:21;7.90;;;5.75;;
54406;SDS011;40313;50.308;30.374;2022-07-03T14:14:47;6.03;;;5.30;;
54406;SDS011;40313;50.308;30.374;2022-07-03T14:17:14;8.63;;;5.88;;
54406;SDS011;40313;50.308;30.374;2022-07-03T14:19:41;9.70;;;5.95;;
54406;SDS011;40313;50.308;30.374;2022-07-03T14:22:07;16.20;;;5.88;;
54406;SDS011;40313;50.308;30.374;2022-07-03T14:24:34;15.15;;;5.65;;
54406;SDS011;40313;50.308;30.374;2022-07-03T14:27:01;7.72;;;6.13;;
54406;SDS011;40313;50.308;30.374;2022-07-03T14:29:46;14.70;;;7.00;;
54406;SDS011;40313;50.308;30.374;2022-07-03T14:32:30;13.88;;;5.57;;
54406;SDS011;40313;50.308;30.374;2022-07-03T14:34:57;14.07;;;6.53;;
54406;SDS011;40313;50.308;30.374;2022-07-03T14:37:25;11.55;;;6.15;;
54406;SDS011;40313;50.308;30.374;2022-07-03T14:39:53;6.30;;;5.80;;
54406;SDS011;40313;50.308;30.374;2022-07-03T14:42:19;5.50;;;5.00;;
54406;SDS011;40313;50.308;30.374;2022-07-03T14:44:48;8.32;;;5.00;;
54406;SDS011;40313;50.308;30.374;2022-07-03T14:47:14;20.08;;;5.75;;
54406;SDS011;40313;50.308;30.374;2022-07-03T14:49:41;5.20;;;4.72;;
54406;SDS011;40313;50.308;30.374;2022-07-03T14:52:08;5.40;;;4.68;;
54406;SDS011;40313;50.308;30.374;2022-07-03T14:54:35;10.57;;;4.82;;
54406;SDS011;40313;50.308;30.374;2022-07-03T14:57:06;5.50;;;4.68;;
54406;SDS011;40313;50.308;30.374;2022-07-03T15:02:16;12.70;;;4.63;;
54406;SDS011;40313;50.308;30.374;2022-07-03T15:04:48;13.90;;;4.20;;
54406;SDS011;40313;50.308;30.374;2022-07-03T15:07:33;7.18;;;4.80;;
54406;SDS011;40313;50.308;30.374;2022-07-03T15:10:04;9.57;;;4.15;;
54406;SDS011;40313;50.308;30.374;2022-07-03T15:12:33;8.05;;;4.97;;
54406;SDS011;40313;50.308;30.374;2022-07-03T15:15:02;10.02;;;4.05;;
54406;SDS011;40313;50.308;30.374;2022-07-03T15:17:31;4.25;;;3.90;;
54406;SDS011;40313;50.308;30.374;2022-07-03T15:20:00;4.38;;;3.80;;
54406;SDS011;40313;50.308;30.374;2022-07-03T15:22:28;9.18;;;3.70;;
54406;SDS011;40313;50.308;30.374;2022-07-03T15:24:57;6.80;;;3.78;;
54406;SDS011;40313;50.308;30.374;2022-07-03T15:27:24;8.70;;;3.80;;
54406;SDS011;40313;50.308;30.374;2022-07-03T15:29:53;4.53;;;3.65;;
54406;SDS011;40313;50.308;30.374;2022-07-03T15:32:21;7.22;;;3.40;;
54406;SDS011;40313;50.308;30.374;2022-07-03T15:34:50;9.00;;;3.78;;
54406;SDS011;40313;50.308;30.374;2022-07-03T15:37:25;3.97;;;3.63;;
54406;SDS011;40313;50.308;30.374;2022-07-03T15:40:02;4.22;;;3.78;;
54406;SDS011;40313;50.308;30.374;2022-07-03T15:42:35;11.93;;;4.30;;